Time;durP1;ratioP1;P1;durP2;ratioP2;P2;SDS_P1;SDS_P2;PMS_P1;PMS_P2;Temp;Humidity;BMP_temperature;BMP_pressure;BME280_temperature;BME280_humidity;BME280_pressure;Samples;Min_cycle;Max_cycle;Signal;HPM_P1;HPM_P2
2022/07/14 00:01:14;;;;;;;13.15;3.80;;;;;;;;;;4954579;28;20027;-85
2022/07/14 00:03:40;;;;;;;13.82;2.60;;;;;;;;;;4971045;28;20042;-86
2022/07/14 00:06:06;;;;;;;12.27;2.58;;;;;;;;;;4970081;28;20031;-85
2022/07/14 00:08:32;;;;;;;17.63;3.92;;;;;;;;;;4971724;28;20027;-86
2022/07/14 00:10:59;;;;;;;16.08;3.53;;;;;;;;;;4951861;28;20407;-85
2022/07/14 00:13:25;;;;;;;17.25;2.67;;;;;;;;;;4971011;28;20035;-85
2022/07/14 00:15:51;;;;;;;9.45;2.95;;;;;;;;;;4956046;28;20483;-86
2022/07/14 00:18:17;;;;;;;14.52;2.42;;;;;;;;;;4968105;28;20050;-85
2022/07/14 00:20:43;;;;;;;13.65;2.75;;;;;;;;;;4954082;28;20109;-85
2022/07/14 00:23:09;;;;;;;21.45;2.85;;;;;;;;;;4954574;28;20569;-84
2022/07/14 00:25:35;;;;;;;9.15;2.70;;;;;;;;;;4956987;28;20050;-86
2022/07/14 00:28:01;;;;;;;14.52;3.10;;;;;;;;;;4956097;28;20026;-84
2022/07/14 00:30:27;;;;;;;16.42;3.10;;;;;;;;;;4952800;28;20120;-86
2022/07/14 00:32:54;;;;;;;7.60;2.50;;;;;;;;;;4962988;28;20027;-86
2022/07/14 00:35:20;;;;;;;10.15;2.83;;;;;;;;;;4955637;28;20026;-85
2022/07/14 00:37:46;;;;;;;11.68;2.97;;;;;;;;;;4957438;28;20410;-85
2022/07/14 00:40:12;;;;;;;12.27;3.00;;;;;;;;;;4951604;28;20039;-86
2022/07/14 00:42:45;;;;;;;16.02;3.25;;;;;;;;;;4967018;28;20113;-85
2022/07/14 00:45:13;;;;;;;15.55;3.05;;;;;;;;;;4947340;28;20700;-85
2022/07/14 00:47:39;;;;;;;10.43;2.90;;;;;;;;;;4954414;28;20041;-86
2022/07/14 00:50:06;;;;;;;12.25;2.80;;;;;;;;;;4959447;28;20059;-86
2022/07/14 00:52:32;;;;;;;8.00;2.60;;;;;;;;;;4961049;28;20031;-85
2022/07/14 00:54:58;;;;;;;18.15;3.08;;;;;;;;;;4956861;28;20038;-85
2022/07/14 00:57:25;;;;;;;14.48;2.53;;;;;;;;;;4967040;28;20518;-86
2022/07/14 01:00:03;;;;;;;8.18;2.42;;;;;;;;;;4971056;28;20046;-85
2022/07/14 01:02:29;;;;;;;11.23;2.60;;;;;;;;;;4949839;28;20077;-86
2022/07/14 01:04:55;;;;;;;14.05;3.53;;;;;;;;;;4955667;28;20129;-86
2022/07/14 01:07:21;;;;;;;14.23;2.55;;;;;;;;;;4951307;28;20034;-85
2022/07/14 01:09:48;;;;;;;13.35;2.55;;;;;;;;;;4954481;28;20454;-85
2022/07/14 01:12:14;;;;;;;7.15;2.65;;;;;;;;;;4954420;28;20734;-86
2022/07/14 01:14:41;;;;;;;14.60;3.55;;;;;;;;;;4959544;28;20030;-85
2022/07/14 01:17:07;;;;;;;11.30;2.97;;;;;;;;;;4951057;28;20030;-86
2022/07/14 01:19:33;;;;;;;9.35;3.00;;;;;;;;;;4950773;28;20049;-85
2022/07/14 01:22:00;;;;;;;14.63;2.60;;;;;;;;;;4962892;28;20502;-87
2022/07/14 01:24:27;;;;;;;15.80;3.30;;;;;;;;;;4949704;28;20030;-86
2022/07/14 01:26:53;;;;;;;11.55;2.95;;;;;;;;;;4953681;28;20071;-87
2022/07/14 01:29:19;;;;;;;17.90;3.08;;;;;;;;;;4948249;28;20042;-86
2022/07/14 01:31:45;;;;;;;16.17;3.05;;;;;;;;;;4948480;28;20763;-85
2022/07/14 01:34:11;;;;;;;17.20;3.15;;;;;;;;;;4951177;28;20041;-86
2022/07/14 01:36:38;;;;;;;10.65;2.67;;;;;;;;;;4955273;28;20058;-86
2022/07/14 01:39:05;;;;;;;10.52;2.53;;;;;;;;;;4948816;28;20115;-85
2022/07/14 01:41:31;;;;;;;15.50;4.20;;;;;;;;;;4959976;28;20062;-85
2022/07/14 01:43:57;;;;;;;18.52;2.63;;;;;;;;;;4952370;28;20043;-85
2022/07/14 01:46:23;;;;;;;9.73;2.70;;;;;;;;;;4956083;28;20038;-86
2022/07/14 01:48:50;;;;;;;18.58;3.85;;;;;;;;;;4952040;28;20035;-86
2022/07/14 01:51:16;;;;;;;16.88;3.55;;;;;;;;;;4952089;28;20050;-86
2022/07/14 01:53:42;;;;;;;18.00;2.95;;;;;;;;;;4966944;28;20038;-84
2022/07/14 01:56:09;;;;;;;14.60;3.70;;;;;;;;;;4962891;28;20045;-85
2022/07/14 01:58:35;;;;;;;9.07;3.28;;;;;;;;;;4952305;28;20430;-85
2022/07/14 02:03:45;;;;;;;17.38;3.13;;;;;;;;;;4972765;28;20556;-84
2022/07/14 02:06:12;;;;;;;16.17;3.22;;;;;;;;;;4954986;28;20034;-86
2022/07/14 02:08:38;;;;;;;11.25;3.17;;;;;;;;;;4952723;28;20058;-86
2022/07/14 02:13:48;;;;;;;18.63;3.03;;;;;;;;;;4964449;28;20144;-85
2022/07/14 02:16:14;;;;;;;9.57;3.00;;;;;;;;;;4954434;28;20235;-86
2022/07/14 02:18:40;;;;;;;22.10;4.05;;;;;;;;;;4953763;28;20117;-85
2022/07/14 02:21:06;;;;;;;4.30;2.63;;;;;;;;;;4956214;28;20519;-85
2022/07/14 02:23:32;;;;;;;18.67;3.45;;;;;;;;;;4967692;28;20102;-85
2022/07/14 02:25:58;;;;;;;14.30;3.10;;;;;;;;;;4966211;28;20043;-85
2022/07/14 02:28:24;;;;;;;12.13;2.70;;;;;;;;;;4954264;28;20035;-86
2022/07/14 02:30:51;;;;;;;16.70;3.40;;;;;;;;;;4967649;28;20054;-85
2022/07/14 02:33:17;;;;;;;23.38;3.63;;;;;;;;;;4962601;28;20113;-85
2022/07/14 02:35:44;;;;;;;10.30;3.10;;;;;;;;;;4945558;28;20520;-86
2022/07/14 02:38:10;;;;;;;13.13;3.28;;;;;;;;;;4959946;28;20027;-85
2022/07/14 02:40:36;;;;;;;23.75;3.72;;;;;;;;;;4951688;28;20023;-85
2022/07/14 02:43:03;;;;;;;10.25;3.25;;;;;;;;;;4952158;28;20077;-86
2022/07/14 02:45:29;;;;;;;11.95;3.30;;;;;;;;;;4977218;28;20037;-86
2022/07/14 02:47:55;;;;;;;13.57;3.28;;;;;;;;;;4957980;28;20112;-85
2022/07/14 02:50:21;;;;;;;18.65;4.85;;;;;;;;;;4971347;28;20457;-85
2022/07/14 02:52:47;;;;;;;11.40;3.13;;;;;;;;;;4954597;28;20035;-86
2022/07/14 02:55:13;;;;;;;23.75;3.80;;;;;;;;;;4972183;28;20406;-86
2022/07/14 02:57:39;;;;;;;14.77;3.05;;;;;;;;;;4953517;28;20035;-85
2022/07/14 03:00:06;;;;;;;10.40;4.15;;;;;;;;;;4958564;28;20054;-86
2022/07/14 03:02:32;;;;;;;12.82;3.55;;;;;;;;;;4953982;28;20081;-86
2022/07/14 03:04:58;;;;;;;16.70;2.85;;;;;;;;;;4954248;28;20082;-85
2022/07/14 03:07:24;;;;;;;14.27;2.75;;;;;;;;;;4950332;28;20027;-86
2022/07/14 03:09:50;;;;;;;7.90;2.65;;;;;;;;;;4954602;28;20506;-85
2022/07/14 03:12:18;;;;;;;11.77;3.03;;;;;;;;;;4966723;28;20062;-85
2022/07/14 03:14:44;;;;;;;14.95;4.90;;;;;;;;;;4958356;28;20039;-86
2022/07/14 03:17:10;;;;;;;17.10;4.80;;;;;;;;;;4961132;28;20047;-86
2022/07/14 03:19:36;;;;;;;17.90;3.22;;;;;;;;;;4955138;28;20089;-86
2022/07/14 03:22:02;;;;;;;20.42;4.05;;;;;;;;;;4952644;28;20031;-87
2022/07/14 03:24:29;;;;;;;15.50;3.72;;;;;;;;;;4953405;28;20058;-86
2022/07/14 03:26:55;;;;;;;19.10;3.42;;;;;;;;;;4954229;28;20015;-86
2022/07/14 03:29:22;;;;;;;12.40;2.78;;;;;;;;;;4952475;28;20026;-85
2022/07/14 03:31:49;;;;;;;16.80;2.88;;;;;;;;;;4966708;28;20475;-86
2022/07/14 03:34:15;;;;;;;14.50;3.10;;;;;;;;;;4952583;28;20474;-85
2022/07/14 03:36:41;;;;;;;20.00;4.13;;;;;;;;;;4950192;28;20410;-86
2022/07/14 03:39:07;;;;;;;19.48;3.55;;;;;;;;;;4950340;28;20046;-85
2022/07/14 03:41:33;;;;;;;16.23;3.80;;;;;;;;;;4952389;28;20106;-85
2022/07/14 03:44:00;;;;;;;9.27;2.78;;;;;;;;;;4950262;28;20042;-86
2022/07/14 03:46:26;;;;;;;18.25;3.38;;;;;;;;;;4952265;28;20098;-86
2022/07/14 03:48:52;;;;;;;9.88;2.97;;;;;;;;;;4957048;28;20045;-85
2022/07/14 03:51:18;;;;;;;11.95;3.47;;;;;;;;;;4968281;28;20031;-87
2022/07/14 03:53:44;;;;;;;20.63;3.60;;;;;;;;;;4956635;28;20047;-86
2022/07/14 03:56:10;;;;;;;9.85;2.67;;;;;;;;;;4967202;28;20038;-86
2022/07/14 03:58:36;;;;;;;16.08;5.43;;;;;;;;;;4953700;28;20030;-86
2022/07/14 04:01:05;;;;;;;14.05;3.22;;;;;;;;;;4953587;28;20481;-85
2022/07/14 04:03:32;;;;;;;12.07;2.85;;;;;;;;;;4965747;28;20034;-85
2022/07/14 04:05:58;;;;;;;15.75;2.72;;;;;;;;;;4964226;28;20023;-85
2022/07/14 04:08:24;;;;;;;11.93;2.80;;;;;;;;;;4956686;28;20037;-85
2022/07/14 04:10:50;;;;;;;12.15;3.15;;;;;;;;;;4956651;28;20118;-86
2022/07/14 04:13:16;;;;;;;8.50;2.53;;;;;;;;;;4972703;28;20033;-86
2022/07/14 04:15:42;;;;;;;13.38;2.55;;;;;;;;;;4957673;28;20482;-86
2022/07/14 04:18:08;;;;;;;11.07;2.45;;;;;;;;;;4955728;28;20035;-85
2022/07/14 04:20:36;;;;;;;12.10;2.33;;;;;;;;;;4961252;28;20041;-85
2022/07/14 04:23:02;;;;;;;8.20;2.33;;;;;;;;;;4957331;28;20109;-85
2022/07/14 04:25:29;;;;;;;10.73;2.65;;;;;;;;;;4955042;28;20138;-85
2022/07/14 04:27:55;;;;;;;6.43;2.55;;;;;;;;;;4970175;28;20378;-85
2022/07/14 04:30:21;;;;;;;6.28;2.20;;;;;;;;;;4950573;28;20038;-86
2022/07/14 04:32:47;;;;;;;13.95;2.30;;;;;;;;;;4956144;28;20047;-85
2022/07/14 04:35:13;;;;;;;11.88;2.45;;;;;;;;;;4954382;28;20517;-85
2022/07/14 04:37:39;;;;;;;8.10;2.38;;;;;;;;;;4970561;28;20502;-85
2022/07/14 04:40:09;;;;;;;9.02;2.33;;;;;;;;;;4950592;28;20034;-86
2022/07/14 04:42:35;;;;;;;19.45;7.07;;;;;;;;;;4951331;28;20050;-85
2022/07/14 04:45:02;;;;;;;12.95;3.35;;;;;;;;;;4952576;28;20509;-85
2022/07/14 04:47:27;;;;;;;11.10;2.88;;;;;;;;;;4964002;28;20753;-85
2022/07/14 04:52:44;;;;;;;16.00;2.13;;;;;;;;;;4966910;28;20526;-87
2022/07/14 04:55:10;;;;;;;16.15;1.92;;;;;;;;;;4954057;28;20035;-85
2022/07/14 04:57:36;;;;;;;7.70;1.85;;;;;;;;;;4953325;28;20126;-86
2022/07/14 05:00:03;;;;;;;8.60;1.77;;;;;;;;;;4955442;28;20066;-86
2022/07/14 05:02:29;;;;;;;9.43;1.70;;;;;;;;;;4949858;28;20038;-86
2022/07/14 05:04:55;;;;;;;10.65;1.58;;;;;;;;;;4949901;28;20121;-86
2022/07/14 05:07:21;;;;;;;6.63;1.65;;;;;;;;;;4965154;28;20038;-86
2022/07/14 05:09:47;;;;;;;7.90;1.85;;;;;;;;;;4952782;28;20026;-87
2022/07/14 05:12:16;;;;;;;6.25;1.85;;;;;;;;;;4952692;28;20045;-86
2022/07/14 05:14:42;;;;;;;9.60;2.63;;;;;;;;;;4956831;28;20027;-86
2022/07/14 05:17:08;;;;;;;11.90;2.33;;;;;;;;;;4966706;28;20165;-86
2022/07/14 05:19:34;;;;;;;9.90;1.60;;;;;;;;;;4953985;28;20026;-84
2022/07/14 05:22:00;;;;;;;7.75;1.58;;;;;;;;;;4954382;28;20035;-87
2022/07/14 05:24:26;;;;;;;10.30;1.67;;;;;;;;;;4955000;28;20423;-85
2022/07/14 05:26:52;;;;;;;8.68;1.92;;;;;;;;;;4966216;28;20096;-85
2022/07/14 05:29:19;;;;;;;11.32;1.85;;;;;;;;;;4967390;28;20507;-86
2022/07/14 05:31:45;;;;;;;7.05;1.65;;;;;;;;;;4958980;28;20081;-85
2022/07/14 05:34:18;;;;;;;4.18;1.40;;;;;;;;;;4964670;28;20122;-86
2022/07/14 05:36:44;;;;;;;8.85;2.20;;;;;;;;;;4963463;28;20479;-85
2022/07/14 05:39:10;;;;;;;10.95;2.20;;;;;;;;;;4952919;28;20039;-85
2022/07/14 05:41:36;;;;;;;7.28;1.42;;;;;;;;;;4952900;28;20084;-85
2022/07/14 05:44:02;;;;;;;8.00;2.55;;;;;;;;;;4953680;28;20405;-85
2022/07/14 05:46:28;;;;;;;8.82;1.92;;;;;;;;;;4968346;28;20098;-86
2022/07/14 05:48:54;;;;;;;13.25;1.67;;;;;;;;;;4964919;28;20735;-86
2022/07/14 05:51:22;;;;;;;6.80;1.40;;;;;;;;;;4954064;28;20406;-84
2022/07/14 05:53:48;;;;;;;4.13;1.48;;;;;;;;;;4950905;28;20034;-86
2022/07/14 05:56:21;;;;;;;4.88;1.40;;;;;;;;;;4953903;28;20406;-85
2022/07/14 05:58:47;;;;;;;11.90;1.48;;;;;;;;;;4956047;28;20173;-85
2022/07/14 06:56:12;;;;;;;16.23;2.78;;;;;;;;;;4950659;28;20060;-88
2022/07/14 06:58:38;;;;;;;3.72;1.35;;;;;;;;;;4958897;28;20552;-87
2022/07/14 07:01:10;;;;;;;10.82;1.15;;;;;;;;;;4967927;28;20130;-87
2022/07/14 07:03:36;;;;;;;4.55;0.98;;;;;;;;;;4960101;28;20112;-87
2022/07/14 07:08:47;;;;;;;3.50;1.13;;;;;;;;;;4963638;28;20090;-86
2022/07/14 07:11:13;;;;;;;3.90;1.33;;;;;;;;;;4960302;28;20119;-86
2022/07/14 07:13:39;;;;;;;8.52;1.95;;;;;;;;;;4960863;28;20042;-87
2022/07/14 07:16:06;;;;;;;8.70;1.40;;;;;;;;;;4945869;28;20043;-87
2022/07/14 07:18:32;;;;;;;9.18;1.30;;;;;;;;;;4948527;28;20062;-88
2022/07/14 07:20:58;;;;;;;6.60;1.33;;;;;;;;;;4944512;28;20028;-87
2022/07/14 07:23:25;;;;;;;5.95;2.10;;;;;;;;;;4964675;28;20153;-86
2022/07/14 07:25:51;;;;;;;4.28;1.08;;;;;;;;;;4967821;28;20038;-87
2022/07/14 07:28:17;;;;;;;4.25;1.13;;;;;;;;;;4948955;28;20623;-86
2022/07/14 07:30:43;;;;;;;4.40;1.20;;;;;;;;;;4964633;28;20101;-87
2022/07/14 07:33:09;;;;;;;4.90;1.48;;;;;;;;;;4950135;28;20038;-86
2022/07/14 07:35:36;;;;;;;4.82;1.52;;;;;;;;;;4963703;28;20118;-87
2022/07/14 07:38:02;;;;;;;4.25;0.82;;;;;;;;;;4965221;28;20751;-87
2022/07/14 07:40:28;;;;;;;3.45;0.93;;;;;;;;;;4965482;28;20081;-87
2022/07/14 07:42:54;;;;;;;2.53;0.82;;;;;;;;;;4970914;28;20037;-86
2022/07/14 07:45:20;;;;;;;3.72;0.77;;;;;;;;;;4952028;28;20038;-86
2022/07/14 07:47:46;;;;;;;2.65;0.80;;;;;;;;;;4961889;28;20122;-87
2022/07/14 07:50:12;;;;;;;5.20;1.17;;;;;;;;;;4947879;28;20221;-86
2022/07/14 07:52:38;;;;;;;3.47;1.13;;;;;;;;;;4960282;28;20085;-86
2022/07/14 07:55:15;;;;;;;4.32;0.90;;;;;;;;;;4927356;28;20056;-87
2022/07/14 07:57:48;;;;;;;4.55;1.10;;;;;;;;;;4927966;29;21233;-86
2022/07/14 08:00:14;;;;;;;3.17;0.77;;;;;;;;;;4915984;29;20036;-86
2022/07/14 08:02:48;;;;;;;7.78;0.80;;;;;;;;;;4914781;29;20031;-86
2022/07/14 08:05:15;;;;;;;2.67;0.95;;;;;;;;;;4925420;29;20420;-86
2022/07/14 08:07:41;;;;;;;3.33;0.90;;;;;;;;;;4923085;29;20168;-87
2022/07/14 08:10:08;;;;;;;2.35;1.27;;;;;;;;;;4921485;29;20881;-86
2022/07/14 08:12:34;;;;;;;4.32;0.82;;;;;;;;;;4928210;29;20032;-87
2022/07/14 08:15:00;;;;;;;5.65;1.10;;;;;;;;;;4906589;29;20051;-86
2022/07/14 08:17:26;;;;;;;2.40;0.95;;;;;;;;;;4910148;29;21443;-86
2022/07/14 08:19:52;;;;;;;2.22;0.80;;;;;;;;;;4909107;29;20046;-86
2022/07/14 08:22:25;;;;;;;4.68;1.00;;;;;;;;;;4905381;29;20028;-86
2022/07/14 08:24:51;;;;;;;5.05;1.02;;;;;;;;;;4923360;29;20592;-86
2022/07/14 08:27:17;;;;;;;3.50;0.77;;;;;;;;;;4908842;29;20084;-86
2022/07/14 08:29:43;;;;;;;1.40;0.80;;;;;;;;;;4912993;29;20036;-86
2022/07/14 08:32:09;;;;;;;5.13;1.30;;;;;;;;;;4926321;29;20032;-86
2022/07/14 08:34:35;;;;;;;2.05;0.88;;;;;;;;;;4911937;29;20137;-86
2022/07/14 08:37:01;;;;;;;4.45;1.05;;;;;;;;;;4912078;29;20388;-86
2022/07/14 08:39:28;;;;;;;3.85;0.80;;;;;;;;;;4910211;29;20031;-86
2022/07/14 08:41:57;;;;;;;3.35;1.30;;;;;;;;;;4908812;29;20410;-86
2022/07/14 08:44:25;;;;;;;2.20;0.60;;;;;;;;;;4907554;29;20557;-86
2022/07/14 08:46:51;;;;;;;8.00;1.20;;;;;;;;;;4908252;29;20646;-86
2022/07/14 08:49:18;;;;;;;4.53;0.80;;;;;;;;;;4909522;29;20479;-86
2022/07/14 08:51:45;;;;;;;4.03;0.77;;;;;;;;;;4905662;29;20044;-86
2022/07/14 08:54:11;;;;;;;4.07;0.98;;;;;;;;;;4911868;29;20047;-86
2022/07/14 08:56:37;;;;;;;2.83;0.70;;;;;;;;;;4940438;28;20047;-86
2022/07/14 08:59:04;;;;;;;6.47;0.90;;;;;;;;;;4930142;29;20035;-86
2022/07/14 09:01:30;;;;;;;2.38;1.00;;;;;;;;;;4938805;28;20062;-86
2022/07/14 09:03:56;;;;;;;7.00;1.10;;;;;;;;;;4927735;29;20503;-86
2022/07/14 09:06:41;;;;;;;4.03;1.20;;;;;;;;;;4928734;29;20525;-87
2022/07/14 09:09:07;;;;;;;4.28;1.02;;;;;;;;;;4943978;28;20565;-86
2022/07/14 09:11:33;;;;;;;2.58;1.00;;;;;;;;;;4943428;28;20035;-86
2022/07/14 09:14:19;;;;;;;3.55;0.80;;;;;;;;;;4923937;29;20163;-86
2022/07/14 09:16:46;;;;;;;1.17;0.70;;;;;;;;;;4927241;29;20044;-86
2022/07/14 09:19:13;;;;;;;2.72;0.80;;;;;;;;;;4926476;29;20037;-86
2022/07/14 09:21:40;;;;;;;5.75;1.20;;;;;;;;;;4929660;29;20106;-86
2022/07/14 09:24:07;;;;;;;4.05;0.82;;;;;;;;;;4924824;29;20369;-86
2022/07/14 09:26:41;;;;;;;3.17;0.65;;;;;;;;;;4931616;29;20063;-87
2022/07/14 09:29:07;;;;;;;4.30;0.90;;;;;;;;;;4946048;28;20047;-85
2022/07/14 09:31:33;;;;;;;2.92;1.20;;;;;;;;;;4931173;29;20028;-86
2022/07/14 09:34:00;;;;;;;5.50;0.93;;;;;;;;;;4932631;29;20094;-87
2022/07/14 09:36:29;;;;;;;6.00;1.30;;;;;;;;;;4931549;29;20035;-87
2022/07/14 09:39:02;;;;;;;1.58;0.80;;;;;;;;;;4937598;29;21350;-88
2022/07/14 09:41:29;;;;;;;2.47;1.63;;;;;;;;;;4942786;29;20146;-87
2022/07/14 09:44:09;;;;;;;9.05;1.30;;;;;;;;;;4952823;28;20051;-86
2022/07/14 09:46:56;;;;;;;9.80;0.90;;;;;;;;;;4952110;28;20514;-87
2022/07/14 09:49:25;;;;;;;1.15;1.00;;;;;;;;;;4933868;29;20032;-87
2022/07/14 09:52:01;;;;;;;1.20;0.80;;;;;;;;;;4947944;28;20035;-87
2022/07/14 09:54:50;;;;;;;3.33;1.20;;;;;;;;;;4931198;29;20046;-86
2022/07/14 09:57:24;;;;;;;6.22;0.95;;;;;;;;;;4926174;29;20039;-86
2022/07/14 09:59:56;;;;;;;1.67;0.77;;;;;;;;;;4940754;28;20245;-86
2022/07/14 10:02:29;;;;;;;3.20;0.90;;;;;;;;;;4929002;29;20023;-87
2022/07/14 10:05:04;;;;;;;5.78;1.20;;;;;;;;;;4928061;29;20487;-87
2022/07/14 10:07:34;;;;;;;4.43;1.08;;;;;;;;;;4938520;28;20043;-87
2022/07/14 10:10:15;;;;;;;1.75;0.75;;;;;;;;;;4941252;28;20040;-87
2022/07/14 10:12:41;;;;;;;6.05;0.90;;;;;;;;;;4932359;29;20533;-86
2022/07/14 10:15:09;;;;;;;4.82;1.58;;;;;;;;;;4928394;29;20562;-87
2022/07/14 10:17:36;;;;;;;5.75;0.95;;;;;;;;;;4929523;29;20531;-87
2022/07/14 10:20:03;;;;;;;3.38;0.80;;;;;;;;;;4945544;28;20463;-87
2022/07/14 10:22:30;;;;;;;1.48;0.80;;;;;;;;;;4921216;29;20028;-86
2022/07/14 10:24:57;;;;;;;4.30;0.93;;;;;;;;;;4931820;29;20034;-87
2022/07/14 10:27:24;;;;;;;3.00;0.90;;;;;;;;;;4926992;29;20395;-87
2022/07/14 10:29:51;;;;;;;5.97;1.10;;;;;;;;;;4924163;29;20031;-87
2022/07/14 10:32:42;;;;;;;2.65;0.85;;;;;;;;;;4944737;28;20031;-87
2022/07/14 10:35:19;;;;;;;5.93;1.08;;;;;;;;;;4927707;29;20058;-87
2022/07/14 10:38:03;;;;;;;6.65;2.05;;;;;;;;;;4925972;29;20035;-87
2022/07/14 10:40:29;;;;;;;5.97;2.20;;;;;;;;;;4930137;29;20051;-86
2022/07/14 10:42:58;;;;;;;4.63;1.85;;;;;;;;;;4929403;29;20403;-88
2022/07/14 10:45:26;;;;;;;3.30;1.00;;;;;;;;;;4929413;29;20038;-87
2022/07/14 10:47:56;;;;;;;5.45;1.20;;;;;;;;;;4920946;29;20563;-87
2022/07/14 10:50:22;;;;;;;4.88;1.17;;;;;;;;;;4943702;28;20044;-85
2022/07/14 10:52:54;;;;;;;3.63;0.82;;;;;;;;;;4924752;29;20038;-86
2022/07/14 10:55:40;;;;;;;5.05;1.00;;;;;;;;;;4943473;28;20051;-86
2022/07/14 10:58:20;;;;;;;4.72;1.02;;;;;;;;;;4939950;28;20461;-87
2022/07/14 11:00:47;;;;;;;5.00;0.82;;;;;;;;;;4947954;28;20063;-87
2022/07/14 11:03:32;;;;;;;3.65;0.80;;;;;;;;;;4949446;28;20059;-87
2022/07/14 11:06:11;;;;;;;6.93;1.00;;;;;;;;;;4928854;29;20386;-87
2022/07/14 11:08:39;;;;;;;3.13;1.02;;;;;;;;;;4948275;28;20055;-86
2022/07/14 11:11:08;;;;;;;1.50;0.60;;;;;;;;;;4943923;28;20031;-87
2022/07/14 11:13:53;;;;;;;2.10;0.70;;;;;;;;;;4944943;28;20103;-86
2022/07/14 11:16:20;;;;;;;3.00;0.82;;;;;;;;;;4930742;29;20174;-87
2022/07/14 11:18:47;;;;;;;3.15;0.80;;;;;;;;;;4950114;28;20039;-86
2022/07/14 11:21:16;;;;;;;4.22;0.75;;;;;;;;;;4951067;28;20406;-86
2022/07/14 11:23:48;;;;;;;5.75;1.23;;;;;;;;;;4950581;28;20270;-87
2022/07/14 11:26:33;;;;;;;4.82;1.05;;;;;;;;;;4950435;28;20073;-87
2022/07/14 11:29:03;;;;;;;3.75;1.00;;;;;;;;;;4946735;28;20066;-87
2022/07/14 11:31:43;;;;;;;3.40;1.10;;;;;;;;;;4948753;28;20039;-87
2022/07/14 11:37:09;;;;;;;2.25;1.17;;;;;;;;;;4953122;28;20066;-87
2022/07/14 11:39:36;;;;;;;4.40;1.05;;;;;;;;;;4950896;28;20093;-87
2022/07/14 11:42:08;;;;;;;3.10;1.20;;;;;;;;;;4934253;28;20023;-86
2022/07/14 11:44:40;;;;;;;2.08;0.80;;;;;;;;;;4949645;28;20055;-87
2022/07/14 11:47:07;;;;;;;1.38;0.63;;;;;;;;;;4933703;28;20594;-86
2022/07/14 11:49:33;;;;;;;5.18;0.73;;;;;;;;;;4952109;28;20390;-86
2022/07/14 11:52:00;;;;;;;3.58;0.95;;;;;;;;;;4949762;28;20166;-86
2022/07/14 11:54:26;;;;;;;3.35;1.05;;;;;;;;;;4950672;28;20054;-87
2022/07/14 11:57:09;;;;;;;5.47;0.90;;;;;;;;;;4952438;28;20133;-87
2022/07/14 11:59:36;;;;;;;4.55;0.88;;;;;;;;;;4952304;28;20078;-87
2022/07/14 12:02:09;;;;;;;0.98;0.50;;;;;;;;;;4952486;28;20055;-87
2022/07/14 12:04:35;;;;;;;3.53;1.35;;;;;;;;;;4953856;28;20098;-87
2022/07/14 12:07:01;;;;;;;4.55;0.93;;;;;;;;;;4951068;28;20024;-87
2022/07/14 12:09:32;;;;;;;3.33;0.90;;;;;;;;;;4952339;28;20089;-87
2022/07/14 12:11:58;;;;;;;5.10;1.30;;;;;;;;;;4952108;28;20039;-87
2022/07/14 12:14:25;;;;;;;3.35;1.02;;;;;;;;;;4955825;28;20037;-87
2022/07/14 12:16:51;;;;;;;8.27;0.93;;;;;;;;;;4955543;28;20035;-86
2022/07/14 12:19:27;;;;;;;3.28;0.90;;;;;;;;;;4931117;28;20486;-87
2022/07/14 12:21:57;;;;;;;6.93;1.17;;;;;;;;;;4952062;28;20462;-87
2022/07/14 12:24:25;;;;;;;1.13;0.80;;;;;;;;;;4947183;28;20031;-87
2022/07/14 12:26:51;;;;;;;6.60;1.02;;;;;;;;;;4947761;28;20070;-87
2022/07/14 12:29:17;;;;;;;2.15;1.02;;;;;;;;;;4950909;28;20031;-87
2022/07/14 12:31:44;;;;;;;7.85;1.88;;;;;;;;;;4952227;28;20037;-87
2022/07/14 12:34:10;;;;;;;4.10;1.20;;;;;;;;;;4946498;28;20074;-87
2022/07/14 12:36:36;;;;;;;5.47;0.90;;;;;;;;;;4951657;28;20066;-87
2022/07/14 12:39:04;;;;;;;5.15;0.77;;;;;;;;;;4935866;29;20062;-87
2022/07/14 12:41:31;;;;;;;4.43;1.23;;;;;;;;;;4933537;29;20044;-87
2022/07/14 12:43:58;;;;;;;2.08;0.90;;;;;;;;;;4950649;28;20023;-87
2022/07/14 12:46:24;;;;;;;3.67;0.80;;;;;;;;;;4936184;29;20104;-87
2022/07/14 12:48:50;;;;;;;4.65;0.73;;;;;;;;;;4950075;28;20493;-87
2022/07/14 12:51:25;;;;;;;6.13;0.90;;;;;;;;;;4951026;28;20374;-87
2022/07/14 12:53:56;;;;;;;2.67;0.77;;;;;;;;;;4953420;28;20046;-87
2022/07/14 12:56:22;;;;;;;2.08;1.13;;;;;;;;;;4948529;28;20062;-88
2022/07/14 12:58:48;;;;;;;5.28;1.02;;;;;;;;;;4948717;28;20502;-87
2022/07/14 13:01:14;;;;;;;2.35;0.85;;;;;;;;;;4933195;28;20043;-87
2022/07/14 13:03:41;;;;;;;3.25;1.00;;;;;;;;;;4934963;28;20098;-87
2022/07/14 13:06:07;;;;;;;3.85;1.15;;;;;;;;;;4933092;28;20042;-87
2022/07/14 13:08:37;;;;;;;2.88;0.75;;;;;;;;;;4949320;28;20441;-87
2022/07/14 13:11:05;;;;;;;5.80;1.63;;;;;;;;;;4925456;29;20042;-87
2022/07/14 13:13:32;;;;;;;4.13;1.15;;;;;;;;;;4927358;29;20043;-87
2022/07/14 13:16:17;;;;;;;5.00;1.45;;;;;;;;;;4948761;28;20233;-87
2022/07/14 13:19:02;;;;;;;4.70;1.58;;;;;;;;;;4945250;28;20684;-87
2022/07/14 13:21:48;;;;;;;2.13;1.00;;;;;;;;;;4930089;28;20054;-87
2022/07/14 13:24:15;;;;;;;4.07;1.30;;;;;;;;;;4932681;28;20090;-87
2022/07/14 13:26:41;;;;;;;4.35;1.30;;;;;;;;;;4947099;28;20102;-87
2022/07/14 13:29:07;;;;;;;5.80;1.13;;;;;;;;;;4948093;28;20381;-87
2022/07/14 13:31:33;;;;;;;5.20;1.33;;;;;;;;;;4948673;28;20039;-87
2022/07/14 13:34:01;;;;;;;3.70;1.20;;;;;;;;;;4929720;28;20035;-87
2022/07/14 13:36:28;;;;;;;2.83;1.05;;;;;;;;;;4926622;28;20047;-89
2022/07/14 13:38:54;;;;;;;2.10;0.98;;;;;;;;;;4942156;28;20113;-87
2022/07/14 13:41:21;;;;;;;2.72;0.95;;;;;;;;;;4944977;28;20046;-87
2022/07/14 13:43:50;;;;;;;4.53;0.93;;;;;;;;;;4948394;28;20042;-87
2022/07/14 13:46:16;;;;;;;3.83;1.33;;;;;;;;;;4946889;28;20651;-87
2022/07/14 13:48:43;;;;;;;5.78;0.90;;;;;;;;;;4927955;28;20023;-87
2022/07/14 13:53:54;;;;;;;4.23;1.00;;;;;;;;;;4950115;28;20038;-87
2022/07/14 13:56:27;;;;;;;4.22;0.90;;;;;;;;;;4948152;28;20147;-87
2022/07/14 13:58:53;;;;;;;1.52;0.77;;;;;;;;;;4930972;29;20122;-87
2022/07/14 14:01:20;;;;;;;8.52;1.45;;;;;;;;;;4929428;29;20159;-87
2022/07/14 14:03:46;;;;;;;7.43;0.98;;;;;;;;;;4924917;29;20044;-87
2022/07/14 14:06:14;;;;;;;6.75;1.27;;;;;;;;;;4925724;29;20050;-87
2022/07/14 14:08:40;;;;;;;2.45;0.93;;;;;;;;;;4926028;29;20123;-87
2022/07/14 14:11:06;;;;;;;4.38;0.93;;;;;;;;;;4930101;29;20056;-88
2022/07/14 14:13:33;;;;;;;5.80;1.05;;;;;;;;;;4936903;29;20467;-87
2022/07/14 14:15:59;;;;;;;6.07;1.75;;;;;;;;;;4927171;29;20035;-87
2022/07/14 14:18:26;;;;;;;8.75;0.93;;;;;;;;;;4932451;29;20031;-87
2022/07/14 14:20:52;;;;;;;2.30;1.00;;;;;;;;;;4931754;29;20043;-87
2022/07/14 14:23:19;;;;;;;4.15;1.10;;;;;;;;;;4927303;28;20043;-88
2022/07/14 14:25:45;;;;;;;4.32;0.95;;;;;;;;;;4944288;28;20090;-87
2022/07/14 14:28:11;;;;;;;1.45;0.65;;;;;;;;;;4945006;28;20051;-87
2022/07/14 14:30:38;;;;;;;6.43;1.15;;;;;;;;;;4940491;28;20128;-87
2022/07/14 14:33:05;;;;;;;3.38;1.10;;;;;;;;;;4949016;28;20462;-87
2022/07/14 14:35:31;;;;;;;1.98;0.80;;;;;;;;;;4930218;29;20439;-87
2022/07/14 14:37:57;;;;;;;3.83;0.73;;;;;;;;;;4927711;29;20479;-86
2022/07/14 14:40:23;;;;;;;1.85;0.70;;;;;;;;;;4933810;29;20039;-87
2022/07/14 14:42:50;;;;;;;5.03;0.60;;;;;;;;;;4928397;29;20039;-88
2022/07/14 14:45:20;;;;;;;1.15;0.70;;;;;;;;;;4934285;29;20495;-87
2022/07/14 14:47:46;;;;;;;2.92;0.82;;;;;;;;;;4929417;29;20534;-87
2022/07/14 14:50:12;;;;;;;4.07;0.95;;;;;;;;;;4947841;28;20619;-88
2022/07/14 14:52:39;;;;;;;2.63;1.00;;;;;;;;;;4944300;28;20044;-87
2022/07/14 14:55:07;;;;;;;5.50;0.90;;;;;;;;;;4921908;29;20547;-87
2022/07/14 14:57:33;;;;;;;5.88;1.20;;;;;;;;;;4940166;28;20044;-87
2022/07/14 14:59:59;;;;;;;5.00;1.27;;;;;;;;;;4948316;28;20047;-88
2022/07/14 15:02:30;;;;;;;1.88;0.85;;;;;;;;;;4942265;28;20024;-87
2022/07/14 15:04:56;;;;;;;5.53;1.25;;;;;;;;;;4943945;28;20031;-87
2022/07/14 15:07:23;;;;;;;10.15;1.65;;;;;;;;;;4946037;28;20036;-88
2022/07/14 15:09:50;;;;;;;2.00;0.90;;;;;;;;;;4946602;28;20105;-87
2022/07/14 15:12:17;;;;;;;3.67;1.10;;;;;;;;;;4944149;28;20114;-88
2022/07/14 15:14:44;;;;;;;3.28;1.00;;;;;;;;;;4931940;28;20556;-87
2022/07/14 15:17:10;;;;;;;6.57;1.23;;;;;;;;;;4942900;28;20030;-87
2022/07/14 15:19:36;;;;;;;5.65;1.33;;;;;;;;;;4927202;28;20101;-88
2022/07/14 15:22:02;;;;;;;5.10;1.70;;;;;;;;;;4930033;28;20137;-87
2022/07/14 15:24:28;;;;;;;11.80;1.92;;;;;;;;;;4947204;28;20427;-87
2022/07/14 15:26:54;;;;;;;8.65;2.00;;;;;;;;;;4947445;28;20062;-88
2022/07/14 15:29:20;;;;;;;7.07;1.33;;;;;;;;;;4929293;28;20166;-87
2022/07/14 15:31:50;;;;;;;5.97;1.70;;;;;;;;;;4944516;28;20039;-88
2022/07/14 15:34:16;;;;;;;9.52;1.50;;;;;;;;;;4948754;28;20057;-87
2022/07/14 15:42:31;;;;;;;3.97;1.50;;;;;;;;;;4950259;28;20114;-87
2022/07/14 15:44:57;;;;;;;6.55;1.58;;;;;;;;;;4950303;28;20106;-87
2022/07/14 15:47:23;;;;;;;3.45;1.70;;;;;;;;;;4931605;28;20031;-87
2022/07/14 15:49:49;;;;;;;3.35;1.67;;;;;;;;;;4934783;29;20375;-86
2022/07/14 15:52:15;;;;;;;3.55;1.67;;;;;;;;;;4950362;28;20296;-86
2022/07/14 15:54:43;;;;;;;6.88;1.60;;;;;;;;;;4953621;28;20058;-86
2022/07/14 15:57:09;;;;;;;9.45;1.58;;;;;;;;;;4951560;28;20035;-86
2022/07/14 15:59:35;;;;;;;8.70;2.28;;;;;;;;;;4953300;28;20039;-86